EBAW

EBAW 062050Z AUTO 22013KT 9999 // FEW032/// SCT041/// 12/06 Q1002

TAF TAF EBAW 251700Z 2518/2606 11007KT CAVOK PROB30 TEMPO 2518/2520 VRB15G30KT 3500 SHRA TSRA

EHWO

EHWO 062055Z AUTO 22012KT 180V260 9999 FEW020 OVC024 12/07 Q1000 WHT

TAF TAF EHWO 050809Z 0509/0521 24012KT 9999 SCT020 TEMPO 0509/0521 24015G28KT 4500 SHRA SCT015CB BKN020 PROB40 TEMPO 0509/0521 2500 SHRA TSRA FEW008 SCT015CB PROB30 TEMPO 0509/0512 25017G32KT 2000 TSRAGR SCT008 BKN013CB BECMG 0510/0513 28012G22KT

EBBL

EBBL 062055Z AUTO 23013KT 9999 FEW064/// BKN094/// 13/02 Q1002 BLU

TAF EBBL 051541Z 0519/0607 30015G25KT 9999 SCT015TCU BKN040 TEMPO 0519/0523 6000 -SHRA SCT015TCU BKN040 BECMG 0601/0603 9999 SCT040

Always consult the official METAR resources.